KMCI

Kansas City International Airport

Kansas City, Missouri, USA
METAR KMCI 230053Z 00000KT 10SM CLR 16/08 A3016 RMK AO2 SLP211 T01610083
Observed Flight Rules
Oct-23 @ 00:53 UTC (26 minutes ago) Visual Flight Rules
Visibility Clouds
10 miles
  • Clear skies
Temperatures Readings
Current 16°C / 61°F
Dewpoint 8°C / 46°F
Humidity 59%
Altimeter 30.16" Hg
Pressure 1021.1 hPa
Elevation 320
METAR KMCI 230053Z 00000KT 10SM CLR 16/08 A3016 RMK AO2 SLP211 T01610083
Observed Flight Rules
Oct-23 @ 00:53 UTC
(26 minutes ago)
VFR
Clouds
  • Clear skies
Temperature Dewpoint
16°C / 61°F 8°C / 46°F
Humidity Altimeter Pressure
59% 30.16" Hg 1021.1 hPa